createdAt,value
2022-11-07T00:02:16.886Z,99157.59
2022-11-07T00:05:04.242Z,99165.28
2022-11-07T00:07:51.533Z,99171.13
2022-11-07T00:10:38.510Z,99172.78
2022-11-07T00:13:27.364Z,99174.50
2022-11-07T00:16:16.881Z,99165.91
2022-11-07T00:19:04.277Z,99168.44
2022-11-07T00:21:51.908Z,99172.66
2022-11-07T00:24:39.187Z,99167.53
2022-11-07T00:27:26.386Z,99159.84
2022-11-07T00:30:14.815Z,99170.91
2022-11-07T00:33:03.264Z,99175.22
2022-11-07T00:35:50.502Z,99176.03
2022-11-07T00:38:37.788Z,99181.03
2022-11-07T00:41:25.543Z,99164.03
2022-11-07T00:44:12.571Z,99180.22
2022-11-07T00:46:59.609Z,99178.47
2022-11-07T00:49:47.984Z,99174.97
2022-11-07T00:52:35.283Z,99179.28
2022-11-07T00:55:22.629Z,99192.09
2022-11-07T00:58:13.825Z,99188.63
2022-11-07T01:01:08.453Z,99187.78
2022-11-07T01:04:13.251Z,99191.19
2022-11-07T01:07:02.814Z,99196.31
2022-11-07T01:09:49.966Z,99195.34
2022-11-07T01:12:38.101Z,99198.88
2022-11-07T01:15:25.209Z,99199.56
2022-11-07T01:18:12.404Z,99195.34
2022-11-07T01:20:59.351Z,99204.56
2022-11-07T01:23:48.041Z,99200.38
2022-11-07T01:26:35.345Z,99202.13
2022-11-07T01:29:22.491Z,99188.38
2022-11-07T01:32:09.849Z,99194.31
2022-11-07T01:34:57.003Z,99196.88
2022-11-07T01:37:44.064Z,99197.72
2022-11-07T01:40:33.848Z,99199.31
2022-11-07T01:43:21.145Z,99201.88
2022-11-07T01:46:09.992Z,99205.28
2022-11-07T01:49:05.818Z,99200.03
2022-11-07T01:51:59.735Z,99200.84
2022-11-07T01:54:53.508Z,99202.59
2022-11-07T01:57:46.482Z,99197.34
2022-11-07T02:00:35.508Z,99192.22
2022-11-07T02:03:23.199Z,99183.63
2022-11-07T02:06:15.766Z,99191.19
2022-11-07T02:09:03.028Z,99186.06
2022-11-07T02:11:50.175Z,99190.25
2022-11-07T02:14:38.691Z,99190.25
2022-11-07T02:17:26.011Z,99199.56
2022-11-07T02:20:13.722Z,99200.38
2022-11-07T02:23:05.242Z,99196.06
2022-11-07T02:25:54.089Z,99197.72
2022-11-07T02:28:42.509Z,99194.22
2022-11-07T02:31:29.673Z,99195.94
2022-11-07T02:34:16.768Z,99203.63
2022-11-07T02:37:08.084Z,99200.94
2022-11-07T02:39:55.138Z,99193.25
2022-11-07T02:42:46.298Z,99183.84
2022-11-07T02:45:37.976Z,99182.94
2022-11-07T02:48:30.418Z,99184.66
2022-11-07T02:51:17.906Z,99184.66
2022-11-07T02:54:05.725Z,99184.66
2022-11-07T02:56:52.999Z,99181.28
2022-11-07T02:59:41.444Z,99173.59
2022-11-07T03:02:28.945Z,99171.03
2022-11-07T03:05:18.210Z,99177.06
2022-11-07T03:08:05.794Z,99179.63
2022-11-07T03:10:53.104Z,99183.00
2022-11-07T03:13:41.001Z,99189.91
2022-11-07T03:16:29.833Z,99187.31
2022-11-07T03:19:16.920Z,99184.75
2022-11-07T03:22:04.612Z,99188.13
2022-11-07T03:24:52.719Z,99189.91
2022-11-07T03:27:48.532Z,99194.22
2022-11-07T03:30:35.975Z,99189.09
2022-11-07T03:33:24.552Z,99194.22
2022-11-07T03:36:12.534Z,99198.38
2022-11-07T03:38:59.511Z,99192.47
2022-11-07T03:41:46.530Z,99204.34
2022-11-07T03:44:33.649Z,99197.47
2022-11-07T03:47:20.864Z,99194.00
2022-11-07T03:50:12.053Z,99203.34
2022-11-07T03:52:59.467Z,99195.66
2022-11-07T03:55:48.818Z,99202.50
2022-11-07T03:58:36.511Z,99210.19
2022-11-07T04:01:23.911Z,99227.22
2022-11-07T04:04:11.598Z,99224.53
2022-11-07T04:07:00.159Z,99226.16
2022-11-07T04:09:47.384Z,99225.34
2022-11-07T04:12:52.049Z,99232.09
2022-11-07T04:15:57.440Z,99229.53
2022-11-07T04:18:44.577Z,99240.75
2022-11-07T04:21:31.561Z,99230.50
2022-11-07T04:24:19.971Z,99237.22
2022-11-07T04:27:25.033Z,99236.28
2022-11-07T04:30:24.919Z,99231.97
2022-11-07T04:33:12.328Z,99238.88
2022-11-07T04:36:02.421Z,99233.72
2022-11-07T04:38:49.841Z,99236.28
2022-11-07T04:41:38.354Z,99231.97
2022-11-07T04:44:25.463Z,99240.50
2022-11-07T04:47:12.588Z,99237.00
2022-11-07T04:49:59.907Z,99237.00
2022-11-07T04:52:48.213Z,99238.63
2022-11-07T04:55:35.517Z,99243.75
2022-11-07T04:58:24.095Z,99237.69
2022-11-07T05:01:11.470Z,99225.72
2022-11-07T05:03:58.599Z,99231.63
2022-11-07T05:06:45.847Z,99230.72
2022-11-07T05:09:34.311Z,99238.41
2022-11-07T05:12:21.519Z,99241.78
2022-11-07T05:15:11.235Z,99226.41
2022-11-07T05:17:58.505Z,99233.16
2022-11-07T05:20:45.523Z,99232.31
2022-11-07T05:23:32.759Z,99230.59
2022-11-07T05:26:19.841Z,99231.41
2022-11-07T05:29:08.740Z,99242.50
2022-11-07T05:31:57.688Z,99241.66
2022-11-07T05:34:44.984Z,99245.06
2022-11-07T05:37:31.786Z,99238.16
2022-11-07T05:40:19.066Z,99244.94
2022-11-07T05:43:09.009Z,99249.22
2022-11-07T05:46:00.889Z,99249.22
2022-11-07T05:48:49.296Z,99244.09
2022-11-07T05:51:36.648Z,99236.41
2022-11-07T05:54:24.703Z,99245.84
2022-11-07T05:57:11.788Z,99241.41
2022-11-07T05:59:59.261Z,99244.09
2022-11-07T06:02:46.924Z,99245.75
2022-11-07T06:05:35.326Z,99246.53
2022-11-07T06:08:22.510Z,99241.41
2022-11-07T06:11:09.597Z,99246.53
2022-11-07T06:13:57.005Z,99253.31
2022-11-07T06:16:44.226Z,99262.66
2022-11-07T06:19:31.426Z,99260.06
2022-11-07T06:22:19.724Z,99270.34
2022-11-07T06:25:07.861Z,99256.72
2022-11-07T06:27:55.243Z,99261.72
2022-11-07T06:30:43.206Z,99262.66
2022-11-07T06:33:31.011Z,99265.22
2022-11-07T06:36:18.334Z,99277.91
2022-11-07T06:39:07.178Z,99281.28
2022-11-07T06:41:54.508Z,99267.66
2022-11-07T06:44:41.761Z,99267.53
2022-11-07T06:47:28.852Z,99270.09
2022-11-07T06:50:16.204Z,99275.22
2022-11-07T06:53:04.423Z,99282.00
2022-11-07T06:55:52.812Z,99278.63
2022-11-07T06:58:40.336Z,99285.28
2022-11-07T07:01:27.731Z,99282.69
2022-11-07T07:03:56.426Z,99285.94
2022-11-07T07:06:25.118Z,99295.28
2022-11-07T07:08:54.564Z,99305.53
2022-11-07T07:11:24.941Z,99297.72
2022-11-07T07:13:56.029Z,99305.31
2022-11-07T07:16:28.162Z,99305.31
2022-11-07T07:18:56.837Z,99315.56
2022-11-07T07:21:26.044Z,99319.66
2022-11-07T07:23:54.771Z,99316.16
2022-11-07T07:26:24.703Z,99318.72
2022-11-07T07:28:53.298Z,99328.03
2022-11-07T07:31:26.420Z,99332.22
2022-11-07T07:33:55.024Z,99334.00
2022-11-07T07:36:23.804Z,99339.94
2022-11-07T07:38:53.090Z,99336.44
2022-11-07T07:41:21.814Z,99336.44
2022-11-07T07:43:51.814Z,99338.19
2022-11-07T07:46:24.224Z,99336.31
2022-11-07T07:48:52.849Z,99332.13
2022-11-07T07:51:21.595Z,99345.66
2022-11-07T07:53:50.172Z,99344.72
2022-11-07T07:56:18.796Z,99346.34
2022-11-07T07:58:47.664Z,99339.59
2022-11-07T08:01:17.861Z,99346.34
2022-11-07T08:04:00.747Z,99355.66
2022-11-07T08:06:31.187Z,99346.34
2022-11-07T08:08:59.775Z,99350.53
2022-11-07T08:11:28.642Z,99347.06
2022-11-07T08:14:01.022Z,99352.19
2022-11-07T08:16:31.718Z,99350.41
2022-11-07T08:19:00.349Z,99352.19
2022-11-07T08:21:28.943Z,99347.06
2022-11-07T08:23:57.547Z,99346.94
2022-11-07T08:26:26.549Z,99353.69
2022-11-07T08:28:55.799Z,99342.50
2022-11-07T08:31:27.376Z,99352.66
2022-11-07T08:34:00.545Z,99349.25
2022-11-07T08:36:29.875Z,99345.75
2022-11-07T08:38:58.550Z,99342.41
2022-11-07T08:41:27.140Z,99348.22
2022-11-07T08:43:55.774Z,99358.47
2022-11-07T08:46:24.437Z,99344.72
2022-11-07T08:48:52.996Z,99345.53
2022-11-07T08:51:22.970Z,99356.63
2022-11-07T08:53:51.533Z,99347.97
2022-11-07T08:56:20.150Z,99357.31
2022-11-07T08:58:48.723Z,99362.31
2022-11-07T09:01:17.734Z,99359.66
2022-11-07T09:03:51.689Z,99360.47
2022-11-07T09:06:24.959Z,99351.00
2022-11-07T09:08:53.581Z,99351.00
2022-11-07T09:11:22.514Z,99357.78
2022-11-07T09:13:51.198Z,99356.13
2022-11-07T09:16:20.506Z,99353.56
2022-11-07T09:18:50.710Z,99358.59
2022-11-07T09:21:22.743Z,99352.66
2022-11-07T09:23:53.467Z,99358.59
2022-11-07T09:26:22.295Z,99355.09
2022-11-07T09:28:53.944Z,99365.34
2022-11-07T09:31:24.915Z,99364.56
2022-11-07T09:33:53.491Z,99361.06
2022-11-07T09:36:24.226Z,99363.63
2022-11-07T09:38:56.262Z,99361.06
2022-11-07T09:41:38.019Z,99355.09
2022-11-07T09:44:40.716Z,99368.03
2022-11-07T09:47:20.942Z,99369.81
2022-11-07T09:49:53.112Z,99376.53
2022-11-07T09:52:29.699Z,99383.31
2022-11-07T09:55:08.504Z,99379.94
2022-11-07T09:57:39.030Z,99385.88
2022-11-07T10:00:15.024Z,99386.72
2022-11-07T10:02:47.914Z,99394.41
2022-11-07T10:05:20.245Z,99391.72
2022-11-07T10:08:01.253Z,99391.84
2022-11-07T10:10:42.101Z,99390.91
2022-11-07T10:13:49.605Z,99388.44
2022-11-07T10:16:32.932Z,99389.28
2022-11-07T10:19:20.902Z,99386.72
2022-11-07T10:22:02.986Z,99390.91
2022-11-07T10:24:46.413Z,99387.53
2022-11-07T10:27:16.427Z,99391.72
2022-11-07T10:29:51.069Z,99397.66
2022-11-07T10:32:26.231Z,99399.31
2022-11-07T10:35:17.184Z,99400.94
2022-11-07T10:37:54.802Z,99394.84
2022-11-07T10:40:26.113Z,99393.00
2022-11-07T10:42:57.232Z,99403.28
2022-11-07T10:45:28.936Z,99398.81
2022-11-07T10:48:00.794Z,99403.03
2022-11-07T10:50:30.186Z,99409.81
2022-11-07T10:53:01.775Z,99408.03
2022-11-07T10:55:44.017Z,99406.31
2022-11-07T10:58:22.423Z,99406.31
2022-11-07T11:01:04.887Z,99399.41
2022-11-07T11:03:44.672Z,99407.94
2022-11-07T11:06:31.170Z,99396.84
2022-11-07T11:09:02.421Z,99399.31
2022-11-07T11:11:37.084Z,99399.19
2022-11-07T11:14:12.563Z,99384.75
2022-11-07T11:16:42.776Z,99393.94
2022-11-07T11:19:23.914Z,99391.34
2022-11-07T11:21:56.153Z,99380.16
2022-11-07T11:24:35.705Z,99387.75
2022-11-07T11:27:12.663Z,99374.09
2022-11-07T11:29:51.120Z,99379.13
2022-11-07T11:32:27.050Z,99375.63
2022-11-07T11:35:07.028Z,99372.22
2022-11-07T11:37:39.808Z,99377.25
2022-11-07T11:40:16.578Z,99372.94
2022-11-07T11:42:54.458Z,99366.03
2022-11-07T11:45:35.261Z,99370.38
2022-11-07T11:48:13.692Z,99359.19
2022-11-07T11:50:47.161Z,99357.53
2022-11-07T11:53:20.654Z,99351.47
2022-11-07T11:55:59.546Z,99348.91
2022-11-07T11:58:43.809Z,99356.59
2022-11-07T12:04:27.741Z,99354.03
2022-11-07T12:07:03.313Z,99347.28
2022-11-07T12:09:38.481Z,99342.81
2022-11-07T12:12:23.850Z,99342.81
2022-11-07T12:15:25.242Z,99347.03
2022-11-07T12:18:02.281Z,99347.72
2022-11-07T12:20:38.006Z,99342.72
2022-11-07T12:23:23.133Z,99342.59
2022-11-07T12:25:59.869Z,99341.69
2022-11-07T12:28:48.453Z,99332.22
2022-11-07T12:31:40.805Z,99337.34
2022-11-07T12:34:24.301Z,99342.34
2022-11-07T12:37:16.537Z,99337.94
2022-11-07T12:40:01.961Z,99331.97
2022-11-07T12:42:46.486Z,99328.47
2022-11-07T12:45:24.136Z,99331.84
2022-11-07T12:48:17.902Z,99320.66
2022-11-07T12:50:55.905Z,99329.16
2022-11-07T12:53:39.868Z,99341.06
2022-11-07T12:56:13.361Z,99332.56
2022-11-07T12:58:44.515Z,99324.75
2022-11-07T13:01:15.248Z,99323.00
2022-11-07T13:03:59.208Z,99316.94
2022-11-07T13:06:36.833Z,99324.63
2022-11-07T13:09:18.195Z,99311.78
2022-11-07T13:11:54.256Z,99314.38
2022-11-07T13:14:30.204Z,99306.66
2022-11-07T13:17:24.969Z,99310.88
2022-11-07T13:20:01.654Z,99309.94
2022-11-07T13:22:37.807Z,99317.63
2022-11-07T13:25:26.008Z,99321.81
2022-11-07T13:28:07.023Z,99321.81
2022-11-07T13:30:38.867Z,99324.28
2022-11-07T13:33:23.483Z,99320.88
2022-11-07T13:35:57.402Z,99324.28
2022-11-07T13:38:29.034Z,99327.66
2022-11-07T13:41:03.986Z,99325.09
2022-11-07T13:43:41.637Z,99326.72
2022-11-07T13:46:20.309Z,99322.53
2022-11-07T13:48:53.682Z,99319.97
2022-11-07T13:51:28.996Z,99321.59
2022-11-07T13:54:11.643Z,99317.38
2022-11-07T13:56:45.585Z,99325.09
2022-11-07T13:59:33.852Z,99321.59
2022-11-07T14:02:05.163Z,99321.72
2022-11-07T14:04:40.491Z,99322.53
2022-11-07T14:07:20.267Z,99327.66
2022-11-07T14:09:58.786Z,99317.38
2022-11-07T14:12:29.386Z,99330.22
2022-11-07T14:15:00.310Z,99330.22
2022-11-07T14:17:34.633Z,99322.53
2022-11-07T14:20:18.398Z,99325.91
2022-11-07T14:22:52.649Z,99317.38
2022-11-07T14:25:28.262Z,99326.03
2022-11-07T14:27:57.465Z,99328.47
2022-11-07T14:30:29.707Z,99313.06
2022-11-07T14:33:01.290Z,99317.38
2022-11-07T14:35:34.445Z,99314.81
2022-11-07T14:38:16.508Z,99324.28
2022-11-07T14:40:47.645Z,99324.28
2022-11-07T14:43:22.512Z,99317.38
2022-11-07T14:46:12.912Z,99310.50
2022-11-07T14:48:47.928Z,99323.34
2022-11-07T14:51:20.298Z,99329.31
2022-11-07T14:54:00.798Z,99321.59
2022-11-07T14:56:36.927Z,99331.03
2022-11-07T14:59:06.034Z,99320.75
2022-11-07T15:01:35.520Z,99314.81
2022-11-07T15:04:29.009Z,99322.53
2022-11-07T15:06:58.366Z,99325.09
2022-11-07T15:09:35.672Z,99330.22
2022-11-07T15:12:17.127Z,99329.44
2022-11-07T15:14:46.489Z,99329.44
2022-11-07T15:17:24.910Z,99327.66
2022-11-07T15:20:00.752Z,99319.97
2022-11-07T15:22:37.870Z,99325.91
2022-11-07T15:25:26.164Z,99327.66
2022-11-07T15:27:57.153Z,99331.03
2022-11-07T15:30:30.964Z,99326.72
2022-11-07T15:32:59.934Z,99325.91
2022-11-07T15:35:43.646Z,99326.72
2022-11-07T15:38:20.167Z,99328.47
2022-11-07T15:40:49.664Z,99332.66
2022-11-07T15:43:20.216Z,99330.91
2022-11-07T15:45:50.979Z,99329.31
2022-11-07T15:48:22.691Z,99327.53
2022-11-07T15:50:51.905Z,99324.03
2022-11-07T15:53:23.904Z,99332.66
2022-11-07T15:55:54.643Z,99328.34
2022-11-07T15:58:26.564Z,99330.91
2022-11-07T16:00:56.156Z,99332.66
2022-11-07T16:03:26.850Z,99345.50
2022-11-07T16:06:04.011Z,99346.31
2022-11-07T16:08:32.709Z,99344.72
2022-11-07T16:11:04.537Z,99336.16
2022-11-07T16:14:29.297Z,99345.63
2022-11-07T16:16:50.010Z,99342.25
2022-11-07T16:19:22.243Z,99333.72
2022-11-07T16:21:50.863Z,99329.44
2022-11-07T16:24:19.443Z,99327.66
2022-11-07T16:26:50.734Z,99330.22
2022-11-07T16:29:20.706Z,99321.72
2022-11-07T16:31:49.331Z,99332.00
2022-11-07T16:34:17.932Z,99333.72
2022-11-07T16:36:48.880Z,99344.00
2022-11-07T16:39:21.604Z,99338.84
2022-11-07T16:41:51.416Z,99333.72
2022-11-07T16:44:26.426Z,99338.84
2022-11-07T16:46:57.049Z,99348.31
2022-11-07T16:49:30.686Z,99342.34
2022-11-07T16:51:59.811Z,99342.34
2022-11-07T16:54:28.411Z,99352.63
2022-11-07T16:56:57.300Z,99339.78
2022-11-07T16:59:27.337Z,99345.75
2022-11-07T17:01:56.142Z,99347.50
2022-11-07T17:04:24.805Z,99348.44
2022-11-07T17:06:53.442Z,99344.91
2022-11-07T17:09:24.736Z,99353.59
2022-11-07T17:11:53.305Z,99340.75
2022-11-07T17:14:21.923Z,99340.75
2022-11-07T17:16:51.895Z,99345.03
2022-11-07T17:19:20.500Z,99343.41
2022-11-07T17:21:49.506Z,99344.25
2022-11-07T17:24:20.635Z,99341.69
2022-11-07T17:26:49.305Z,99337.47
2022-11-07T17:29:18.014Z,99342.59
2022-11-07T17:31:50.297Z,99334.09
2022-11-07T17:34:21.487Z,99335.81
2022-11-07T17:36:59.466Z,99335.81
2022-11-07T17:39:28.311Z,99340.16
2022-11-07T17:41:57.687Z,99347.88
2022-11-07T17:44:26.787Z,99346.09
2022-11-07T17:47:14.330Z,99348.66
2022-11-07T17:49:44.689Z,99354.72
2022-11-07T17:52:13.675Z,99354.72
2022-11-07T17:54:42.307Z,99348.75
2022-11-07T17:57:11.408Z,99355.56
2022-11-07T17:59:45.603Z,99351.22
2022-11-07T18:02:20.263Z,99361.50
2022-11-07T18:04:50.315Z,99360.69
2022-11-07T18:07:19.238Z,99347.03
2022-11-07T18:09:49.436Z,99343.53
2022-11-07T18:12:18.099Z,99352.06
2022-11-07T18:14:46.700Z,99346.94
2022-11-07T18:17:15.288Z,99348.66
2022-11-07T18:19:44.104Z,99352.88
2022-11-07T18:22:14.128Z,99357.22
2022-11-07T18:24:42.828Z,99352.06
2022-11-07T18:27:11.395Z,99352.88
2022-11-07T18:29:40.880Z,99352.88
2022-11-07T18:32:09.701Z,99350.31
2022-11-07T18:34:38.342Z,99358.00
2022-11-07T18:37:06.944Z,99358.00
2022-11-07T18:39:37.190Z,99348.66
2022-11-07T18:42:06.045Z,99344.38
2022-11-07T18:44:34.679Z,99346.09
2022-11-07T18:47:03.385Z,99348.66
2022-11-07T18:49:32.138Z,99351.22
2022-11-07T18:52:00.752Z,99356.38
2022-11-07T18:54:29.990Z,99351.22
2022-11-07T18:56:59.954Z,99344.47
2022-11-07T18:59:28.662Z,99351.22
2022-11-07T19:01:57.285Z,99344.47
2022-11-07T19:04:25.928Z,99344.47
2022-11-07T19:06:57.924Z,99336.75
2022-11-07T19:09:29.837Z,99334.19
2022-11-07T19:12:01.662Z,99333.34
2022-11-07T19:14:32.804Z,99338.50
2022-11-07T19:17:01.385Z,99347.97
2022-11-07T19:19:30.035Z,99338.59
2022-11-07T19:21:58.643Z,99348.88
2022-11-07T19:24:27.291Z,99348.09
2022-11-07T19:26:55.923Z,99347.13
2022-11-07T19:29:26.469Z,99351.44
2022-11-07T19:31:55.075Z,99345.50
2022-11-07T19:34:25.655Z,99354.13
2022-11-07T19:36:54.257Z,99345.50
2022-11-07T19:39:22.944Z,99345.63
2022-11-07T19:41:51.638Z,99343.06
2022-11-07T19:44:20.332Z,99339.78
2022-11-07T19:46:50.437Z,99349.94
2022-11-07T19:49:19.000Z,99351.69
2022-11-07T19:51:47.615Z,99352.50
2022-11-07T19:54:16.460Z,99356.00
2022-11-07T19:56:45.347Z,99341.44
2022-11-07T19:59:14.100Z,99333.00
2022-11-07T20:01:43.091Z,99340.72
2022-11-07T20:04:13.117Z,99334.78
2022-11-07T20:06:41.718Z,99333.13
2022-11-07T20:09:11.351Z,99337.59
2022-11-07T20:11:40.150Z,99341.88
2022-11-07T20:14:08.745Z,99354.72
2022-11-07T20:16:37.945Z,99350.50
2022-11-07T20:19:06.847Z,99354.97
2022-11-07T20:21:36.803Z,99359.31
2022-11-07T20:24:09.059Z,99354.25
2022-11-07T20:26:38.756Z,99347.50
2022-11-07T20:29:07.570Z,99351.00
2022-11-07T20:31:40.011Z,99356.13
2022-11-07T20:34:09.559Z,99348.56
2022-11-07T20:36:40.165Z,99348.56
2022-11-07T20:39:09.484Z,99355.44
2022-11-07T20:41:38.488Z,99350.28
2022-11-07T20:44:08.495Z,99361.50
2022-11-07T20:46:40.538Z,99357.31
2022-11-07T20:49:12.970Z,99368.50
2022-11-07T20:51:43.855Z,99359.16
2022-11-07T20:54:14.593Z,99365.94
2022-11-07T20:56:43.978Z,99358.34
2022-11-07T20:59:14.114Z,99361.84
2022-11-07T21:01:43.169Z,99370.38
2022-11-07T21:04:44.445Z,99370.38
2022-11-07T21:07:41.098Z,99374.13
2022-11-07T21:10:33.856Z,99375.03
2022-11-07T21:13:21.617Z,99375.97
2022-11-07T21:16:11.269Z,99366.50
2022-11-07T21:19:05.584Z,99366.63
2022-11-07T21:21:52.506Z,99364.19
2022-11-07T21:24:40.992Z,99361.63
2022-11-07T21:27:27.988Z,99361.63
2022-11-07T21:30:16.266Z,99358.25
2022-11-07T21:33:03.435Z,99360.81
2022-11-07T21:35:50.576Z,99355.69
2022-11-07T21:38:37.706Z,99358.25
2022-11-07T21:41:26.485Z,99353.94
2022-11-07T21:44:14.226Z,99350.56
2022-11-07T21:47:01.251Z,99348.78
2022-11-07T21:49:49.907Z,99349.50
2022-11-07T21:52:37.131Z,99349.50
2022-11-07T21:55:24.472Z,99339.25
2022-11-07T21:58:12.929Z,99332.34
2022-11-07T22:01:03.809Z,99335.63
2022-11-07T22:04:06.634Z,99331.28
2022-11-07T22:06:55.666Z,99329.53
2022-11-07T22:09:42.955Z,99325.25
2022-11-07T22:12:29.941Z,99319.28
2022-11-07T22:15:18.620Z,99327.69
2022-11-07T22:18:06.097Z,99317.41
2022-11-07T22:20:53.064Z,99308.09
2022-11-07T22:23:41.105Z,99313.94
2022-11-07T22:26:30.836Z,99302.81
2022-11-07T22:29:18.264Z,99311.44
2022-11-07T22:32:06.964Z,99307.28
2022-11-07T22:34:53.926Z,99309.97
2022-11-07T22:37:40.990Z,99309.25
2022-11-07T22:40:28.078Z,99301.69
2022-11-07T22:43:15.570Z,99301.69
2022-11-07T22:46:04.141Z,99295.03
2022-11-07T22:48:53.814Z,99302.72
2022-11-07T22:51:41.102Z,99295.16
2022-11-07T22:54:28.129Z,99292.72
2022-11-07T22:57:17.842Z,99285.25
2022-11-07T23:00:21.100Z,99283.63
2022-11-07T23:03:08.840Z,99282.09
2022-11-07T23:05:57.345Z,99283.03
2022-11-07T23:08:44.874Z,99271.13
2022-11-07T23:11:50.091Z,99270.31
2022-11-07T23:14:37.358Z,99273.13
2022-11-07T23:17:25.053Z,99282.56
2022-11-07T23:20:34.322Z,99280.00
2022-11-07T23:23:23.934Z,99292.25
2022-11-07T23:26:14.409Z,99282.22
2022-11-07T23:29:09.071Z,99278.03
2022-11-07T23:31:57.792Z,99273.84
2022-11-07T23:34:45.064Z,99274.06
2022-11-07T23:37:32.081Z,99274.06
2022-11-07T23:40:20.582Z,99282.69
2022-11-07T23:43:07.560Z,99276.84
2022-11-07T23:46:12.319Z,99274.53
2022-11-07T23:49:17.321Z,99278.97
2022-11-07T23:52:05.181Z,99272.31
2022-11-07T23:55:09.996Z,99272.31
2022-11-07T23:58:16.129Z,99275.94
